Time;durP1;ratioP1;P1;durP2;ratioP2;P2;SDS_P1;SDS_P2;PMS_P1;PMS_P2;Temp;Humidity;BMP_temperature;BMP_pressure;BME280_temperature;BME280_humidity;BME280_pressure;Samples;Min_cycle;Max_cycle;Signal;HPM_P1;HPM_P2
2021/03/02 00:02:00;;;;;;;3.83;1.90;;;23.30;48.90;;;;;;5073393;28;20056;-44
2021/03/02 00:04:28;;;;;;;2.45;1.80;;;23.30;48.80;;;;;;5073320;28;20048;-43
2021/03/02 00:06:55;;;;;;;2.80;1.77;;;23.30;48.80;;;;;;5070963;28;20049;-43
2021/03/02 00:09:23;;;;;;;1.85;1.60;;;23.30;48.80;;;;;;5072931;28;20044;-43
2021/03/02 00:11:51;;;;;;;3.10;1.95;;;23.30;48.80;;;;;;5072784;28;20415;-45
2021/03/02 00:14:18;;;;;;;1.67;1.40;;;23.30;48.80;;;;;;5073189;28;20064;-47
2021/03/02 00:16:57;;;;;;;2.30;1.75;;;23.30;48.80;;;;;;5073055;28;20059;-43
2021/03/02 00:19:40;;;;;;;2.45;1.67;;;23.30;48.80;;;;;;5073228;28;20049;-43
2021/03/02 00:22:24;;;;;;;2.03;1.60;;;23.30;48.90;;;;;;5072369;28;20494;-43
2021/03/02 00:24:54;;;;;;;1.98;1.52;;;23.30;48.90;;;;;;5073060;28;20052;-43
2021/03/02 00:27:23;;;;;;;2.00;1.52;;;23.30;48.90;;;;;;5072737;28;20132;-43
2021/03/02 00:29:51;;;;;;;3.22;1.92;;;23.30;48.90;;;;;;5072799;28;20040;-44
2021/03/02 00:32:20;;;;;;;2.47;1.80;;;23.30;48.90;;;;;;5072540;28;20511;-43
2021/03/02 00:34:48;;;;;;;2.13;1.67;;;23.30;48.90;;;;;;5071779;28;20123;-45
2021/03/02 00:37:16;;;;;;;2.45;1.75;;;23.20;48.80;;;;;;5071514;28;20060;-43
2021/03/02 00:39:43;;;;;;;2.00;1.35;;;23.20;48.80;;;;;;5072764;28;20382;-43
2021/03/02 00:42:10;;;;;;;1.98;1.55;;;23.30;48.90;;;;;;5072509;28;20135;-46
2021/03/02 00:44:37;;;;;;;3.58;1.60;;;23.30;48.90;;;;;;5072752;28;20048;-44
2021/03/02 00:47:04;;;;;;;2.85;1.58;;;23.20;48.80;;;;;;5072245;28;20044;-43
2021/03/02 00:49:31;;;;;;;1.70;1.60;;;23.30;48.90;;;;;;5071515;28;20463;-43
2021/03/02 00:51:58;;;;;;;1.63;1.50;;;23.20;48.80;;;;;;5072263;28;20045;-44
2021/03/02 00:54:25;;;;;;;3.35;1.70;;;23.20;48.80;;;;;;5071956;28;20052;-43
2021/03/02 00:56:52;;;;;;;2.65;2.05;;;23.20;48.80;;;;;;5072305;28;20055;-47
2021/03/02 00:59:18;;;;;;;2.42;1.95;;;23.20;48.80;;;;;;5072472;28;20408;-45
2021/03/02 01:01:45;;;;;;;2.40;1.95;;;23.20;48.80;;;;;;5072261;28;20087;-44
2021/03/02 01:04:12;;;;;;;2.00;1.67;;;23.20;48.80;;;;;;5072463;28;20052;-43
2021/03/02 01:06:39;;;;;;;2.08;1.60;;;23.20;48.80;;;;;;5072455;28;20399;-43
2021/03/02 01:09:09;;;;;;;2.38;1.88;;;23.20;48.80;;;;;;5050281;28;20053;-44
2021/03/02 01:11:36;;;;;;;2.60;2.10;;;23.20;48.80;;;;;;5052105;28;20091;-45
2021/03/02 01:14:03;;;;;;;2.40;1.40;;;23.20;48.80;;;;;;5052085;28;20045;-43
2021/03/02 01:16:30;;;;;;;2.15;1.70;;;23.20;48.80;;;;;;5051991;28;20489;-45
2021/03/02 01:18:57;;;;;;;2.50;1.70;;;23.20;48.80;;;;;;5052357;28;20408;-43
2021/03/02 01:21:24;;;;;;;2.22;1.85;;;23.20;48.80;;;;;;5051133;28;20045;-43
2021/03/02 01:23:52;;;;;;;1.60;1.45;;;23.20;48.80;;;;;;5062974;28;20051;-43
2021/03/02 01:26:18;;;;;;;1.60;1.50;;;23.20;48.80;;;;;;5071869;28;20049;-45
2021/03/02 01:28:45;;;;;;;2.38;1.80;;;23.20;48.80;;;;;;5072234;28;20044;-44
2021/03/02 01:31:12;;;;;;;2.45;1.65;;;23.20;48.80;;;;;;5072134;28;20045;-44
2021/03/02 01:33:39;;;;;;;2.17;1.60;;;23.20;48.80;;;;;;5071949;28;20044;-44
2021/03/02 01:36:06;;;;;;;2.78;1.88;;;23.20;48.80;;;;;;5072125;28;20063;-44
2021/03/02 01:38:32;;;;;;;2.63;2.08;;;23.20;48.80;;;;;;5071088;28;20056;-45
2021/03/02 01:40:59;;;;;;;2.38;1.88;;;23.20;48.80;;;;;;5070938;28;20059;-43
2021/03/02 01:43:36;;;;;;;2.10;1.73;;;23.20;48.80;;;;;;5071927;28;20492;-43
2021/03/02 01:46:05;;;;;;;2.08;1.63;;;23.20;48.80;;;;;;5074824;28;20499;-44
2021/03/02 01:48:36;;;;;;;2.45;1.70;;;23.20;48.80;;;;;;5075674;28;20052;-43
2021/03/02 01:51:04;;;;;;;2.78;1.63;;;23.20;48.80;;;;;;5075669;28;20076;-46
2021/03/02 01:53:31;;;;;;;3.03;2.00;;;23.20;48.80;;;;;;5075185;28;20049;-45
2021/03/02 01:55:59;;;;;;;1.90;1.40;;;23.20;48.90;;;;;;5074356;28;20598;-43
2021/03/02 01:58:27;;;;;;;2.80;1.70;;;23.20;48.80;;;;;;5075835;28;20052;-43
2021/03/02 02:00:59;;;;;;;2.53;1.70;;;23.20;48.80;;;;;;5075600;28;20052;-46
2021/03/02 02:03:29;;;;;;;2.15;1.70;;;23.20;48.90;;;;;;5075476;28;20504;-48
2021/03/02 02:06:21;;;;;;;2.00;1.70;;;23.20;48.90;;;;;;5075556;28;20052;-43
2021/03/02 02:08:58;;;;;;;1.63;1.40;;;23.20;48.80;;;;;;5073275;28;20044;-44
2021/03/02 02:11:40;;;;;;;2.25;1.88;;;23.20;48.90;;;;;;5075280;28;20528;-43
2021/03/02 02:14:15;;;;;;;2.47;1.50;;;23.20;48.80;;;;;;5075489;28;20048;-44
2021/03/02 02:16:46;;;;;;;2.05;1.67;;;23.20;48.90;;;;;;5075056;28;20052;-44
2021/03/02 02:19:25;;;;;;;2.58;1.83;;;23.10;48.80;;;;;;5075339;28;20148;-43
2021/03/02 02:22:12;;;;;;;2.22;1.50;;;23.20;48.90;;;;;;5075063;28;20052;-45
2021/03/02 02:25:09;;;;;;;3.00;2.05;;;23.10;48.80;;;;;;5074334;28;20052;-43
2021/03/02 02:27:38;;;;;;;2.67;1.70;;;23.10;48.80;;;;;;5075036;28;20548;-44
2021/03/02 02:30:06;;;;;;;2.97;1.70;;;23.10;48.80;;;;;;5073538;28;20055;-43
2021/03/02 02:32:33;;;;;;;2.33;1.48;;;23.10;48.80;;;;;;5074846;28;20056;-43
2021/03/02 02:35:02;;;;;;;2.97;1.90;;;23.20;48.90;;;;;;5073849;28;20079;-43
2021/03/02 02:37:30;;;;;;;2.10;1.90;;;23.10;48.80;;;;;;5074660;28;20052;-43
2021/03/02 02:39:58;;;;;;;2.33;1.70;;;23.10;48.80;;;;;;5074316;28;20193;-44
2021/03/02 02:42:26;;;;;;;2.97;1.67;;;23.10;48.80;;;;;;5074772;28;20048;-44
2021/03/02 02:44:55;;;;;;;2.45;1.90;;;23.10;48.80;;;;;;5075062;28;20499;-44
2021/03/02 02:47:23;;;;;;;1.67;1.50;;;23.10;48.80;;;;;;5074931;28;20055;-44
2021/03/02 02:49:51;;;;;;;2.40;1.90;;;23.10;48.80;;;;;;5074957;28;20068;-48
2021/03/02 02:52:18;;;;;;;2.65;1.80;;;23.10;48.80;;;;;;5074510;28;20045;-45
2021/03/02 02:54:46;;;;;;;2.55;1.45;;;23.20;48.90;;;;;;5072524;28;20041;-44
2021/03/02 02:57:16;;;;;;;1.83;1.52;;;23.10;48.80;;;;;;5073649;28;20052;-44
2021/03/02 02:59:46;;;;;;;2.00;1.80;;;23.10;48.80;;;;;;5073045;28;20049;-44
2021/03/02 03:02:19;;;;;;;2.33;1.70;;;23.10;48.80;;;;;;5074404;28;20048;-46
2021/03/02 03:04:53;;;;;;;1.88;1.75;;;23.10;48.80;;;;;;5075000;28;20071;-46
2021/03/02 03:07:29;;;;;;;1.90;1.70;;;23.10;48.80;;;;;;5074479;28;20044;-46
2021/03/02 03:10:16;;;;;;;2.22;1.75;;;23.10;48.90;;;;;;5073423;28;20124;-46
2021/03/02 03:12:46;;;;;;;2.00;1.63;;;23.10;48.80;;;;;;5074510;28;20494;-43
2021/03/02 03:15:17;;;;;;;1.88;1.40;;;23.10;48.80;;;;;;5074129;28;20055;-46
2021/03/02 03:17:53;;;;;;;1.83;1.60;;;23.10;48.80;;;;;;5073918;28;20139;-44
2021/03/02 03:20:22;;;;;;;2.33;1.75;;;23.10;48.80;;;;;;5074513;28;20365;-43
2021/03/02 03:22:51;;;;;;;2.65;1.98;;;23.10;48.80;;;;;;5074021;28;20076;-46
2021/03/02 03:25:18;;;;;;;2.20;1.60;;;23.10;48.80;;;;;;5073416;28;20048;-45
2021/03/02 03:27:49;;;;;;;1.90;1.60;;;23.10;48.90;;;;;;5073953;28;20102;-44
2021/03/02 03:30:17;;;;;;;1.80;1.60;;;23.10;48.80;;;;;;5073717;28;20059;-44
2021/03/02 03:32:46;;;;;;;2.50;1.70;;;23.10;48.80;;;;;;5074139;28;20048;-45
2021/03/02 03:35:14;;;;;;;3.22;1.92;;;23.10;48.80;;;;;;5073763;28;20094;-45
2021/03/02 03:37:40;;;;;;;1.83;1.40;;;23.10;48.90;;;;;;5073523;28;20102;-43
2021/03/02 03:40:08;;;;;;;2.10;1.70;;;23.10;48.90;;;;;;5071851;28;20098;-47
2021/03/02 03:42:34;;;;;;;2.10;1.67;;;23.00;48.80;;;;;;5072360;28;20048;-44
2021/03/02 03:45:07;;;;;;;2.28;1.92;;;23.00;48.80;;;;;;5073434;28;20492;-45
2021/03/02 03:47:34;;;;;;;2.15;1.83;;;23.00;48.80;;;;;;5073388;28;20045;-45
2021/03/02 03:50:03;;;;;;;1.80;1.60;;;23.00;48.80;;;;;;5073295;28;20052;-44
2021/03/02 03:52:31;;;;;;;2.13;1.88;;;23.10;48.90;;;;;;5073684;28;20040;-45
2021/03/02 03:54:59;;;;;;;2.20;1.70;;;23.00;48.80;;;;;;5072629;28;20458;-44
2021/03/02 03:57:27;;;;;;;2.53;1.90;;;23.00;48.80;;;;;;5073600;28;20052;-48
2021/03/02 03:59:55;;;;;;;2.28;2.00;;;23.00;48.80;;;;;;5072709;28;20135;-44
2021/03/02 04:02:21;;;;;;;2.47;1.88;;;23.00;48.80;;;;;;5073227;28;20052;-44
2021/03/02 04:04:49;;;;;;;2.53;1.95;;;23.00;48.80;;;;;;5073423;28;20055;-44
2021/03/02 04:07:17;;;;;;;1.63;1.52;;;23.00;48.80;;;;;;5072743;28;20052;-43
2021/03/02 04:09:45;;;;;;;2.17;1.77;;;23.00;48.80;;;;;;5072784;28;20048;-44
2021/03/02 04:12:12;;;;;;;2.22;1.80;;;23.00;49.40;;;;;;5073025;28;20545;-44
2021/03/02 04:14:40;;;;;;;2.20;1.77;;;23.00;48.80;;;;;;5072903;28;20048;-43
2021/03/02 04:17:12;;;;;;;2.50;1.83;;;23.00;48.80;;;;;;5072674;28;20050;-44
2021/03/02 04:19:39;;;;;;;2.17;1.67;;;23.00;48.70;;;;;;5072904;28;20489;-44
2021/03/02 04:22:06;;;;;;;2.10;1.90;;;23.00;49.40;;;;;;5072743;28;20057;-43
2021/03/02 04:24:33;;;;;;;2.53;1.85;;;23.00;48.80;;;;;;5071995;28;20098;-44
2021/03/02 04:27:00;;;;;;;2.53;2.05;;;23.00;48.80;;;;;;5072950;28;20052;-44
2021/03/02 04:29:26;;;;;;;2.30;1.88;;;23.00;48.80;;;;;;5072501;28;20036;-44
2021/03/02 04:31:53;;;;;;;2.50;2.05;;;23.00;48.80;;;;;;5072995;28;20142;-43
2021/03/02 04:34:19;;;;;;;1.65;1.33;;;23.00;48.80;;;;;;5072593;28;20492;-43
2021/03/02 04:36:47;;;;;;;2.53;1.80;;;23.00;48.80;;;;;;5072360;28;20056;-45
2021/03/02 04:39:13;;;;;;;1.85;1.65;;;23.00;48.80;;;;;;5072615;28;20044;-44
2021/03/02 04:41:40;;;;;;;3.58;2.22;;;23.00;48.80;;;;;;5072179;28;20519;-43
2021/03/02 04:44:06;;;;;;;2.20;1.83;;;23.00;48.80;;;;;;5072374;28;20057;-43
2021/03/02 04:46:34;;;;;;;2.53;1.67;;;23.00;48.80;;;;;;5071343;28;20049;-44
2021/03/02 04:49:01;;;;;;;1.77;1.63;;;23.00;48.80;;;;;;5072744;28;20045;-44
2021/03/02 04:51:28;;;;;;;2.10;1.75;;;23.00;48.80;;;;;;5072437;28;20045;-44
2021/03/02 04:53:54;;;;;;;2.28;1.85;;;23.00;48.80;;;;;;5072282;28;20048;-44
2021/03/02 04:56:21;;;;;;;2.58;1.85;;;23.00;48.80;;;;;;5071923;28;20052;-44
2021/03/02 04:58:47;;;;;;;3.38;2.25;;;23.00;48.80;;;;;;5072529;28;20118;-44
2021/03/02 05:01:14;;;;;;;2.55;1.67;;;23.00;48.80;;;;;;5072132;28;20201;-46
2021/03/02 05:03:42;;;;;;;2.95;1.90;;;23.00;48.80;;;;;;5072514;28;20420;-47
2021/03/02 05:06:08;;;;;;;2.40;1.70;;;23.00;48.80;;;;;;5072161;28;20048;-44
2021/03/02 05:08:35;;;;;;;2.10;1.73;;;23.00;48.80;;;;;;5072506;28;20048;-44
2021/03/02 05:11:02;;;;;;;2.65;1.92;;;23.00;48.80;;;;;;5071704;28;20127;-46
2021/03/02 05:13:28;;;;;;;3.28;2.33;;;23.00;48.80;;;;;;5072160;28;20048;-44
2021/03/02 05:16:10;;;;;;;3.22;1.88;;;23.00;48.80;;;;;;5072059;28;20049;-44
2021/03/02 05:18:38;;;;;;;2.13;1.75;;;23.00;48.80;;;;;;5072101;28;20180;-43
2021/03/02 05:21:04;;;;;;;2.28;1.88;;;23.00;48.80;;;;;;5075343;28;20052;-43
2021/03/02 05:23:31;;;;;;;2.50;1.83;;;23.00;48.80;;;;;;5076209;28;20561;-44
2021/03/02 05:25:58;;;;;;;1.60;1.50;;;23.00;48.80;;;;;;5074379;28;20130;-44
2021/03/02 05:28:24;;;;;;;2.17;1.85;;;23.00;48.80;;;;;;5076431;28;20045;-44
2021/03/02 05:30:52;;;;;;;2.15;1.77;;;23.00;48.70;;;;;;5075852;28;20097;-44
2021/03/02 05:33:19;;;;;;;2.20;1.80;;;23.00;48.80;;;;;;5075953;28;20518;-44
2021/03/02 05:35:46;;;;;;;2.08;1.80;;;23.00;48.80;;;;;;5075984;28;20056;-45
2021/03/02 05:38:13;;;;;;;2.55;1.90;;;23.00;48.80;;;;;;5074533;28;20460;-44
2021/03/02 05:40:41;;;;;;;2.38;1.83;;;23.00;48.70;;;;;;5075458;28;20048;-44
2021/03/02 05:43:09;;;;;;;2.38;2.10;;;23.00;48.80;;;;;;5076065;28;20056;-47
2021/03/02 05:45:36;;;;;;;1.55;1.42;;;23.00;48.80;;;;;;5075786;28;20048;-45
2021/03/02 05:48:09;;;;;;;2.67;2.00;;;23.00;48.80;;;;;;5075657;28;20052;-43
2021/03/02 05:50:36;;;;;;;2.53;2.00;;;23.00;48.80;;;;;;5076284;28;20389;-44
2021/03/02 05:53:03;;;;;;;1.90;1.65;;;23.00;48.80;;;;;;5075923;28;20044;-44
2021/03/02 05:55:32;;;;;;;2.10;1.77;;;23.00;48.80;;;;;;5075163;28;20111;-43
2021/03/02 05:58:00;;;;;;;2.00;1.70;;;23.00;48.80;;;;;;5075810;28;20113;-43
2021/03/02 06:00:27;;;;;;;1.95;1.63;;;23.00;48.80;;;;;;5075544;28;20094;-44
2021/03/02 06:02:54;;;;;;;3.92;2.30;;;23.00;48.80;;;;;;5075389;28;20048;-45
2021/03/02 06:05:21;;;;;;;2.50;1.95;;;23.00;48.80;;;;;;5075018;28;20496;-44
2021/03/02 06:07:47;;;;;;;3.28;2.10;;;23.00;48.80;;;;;;5075324;28;20500;-46
2021/03/02 06:10:16;;;;;;;2.40;1.77;;;23.00;48.70;;;;;;5074326;28;20048;-44
2021/03/02 06:12:53;;;;;;;2.00;1.80;;;23.00;48.70;;;;;;5075344;28;20040;-45
2021/03/02 06:15:20;;;;;;;2.40;1.80;;;23.00;48.70;;;;;;5075288;28;20040;-45
2021/03/02 06:18:19;;;;;;;2.20;2.00;;;23.00;48.70;;;;;;5075404;28;20102;-44
2021/03/02 06:20:46;;;;;;;2.35;2.00;;;23.00;48.80;;;;;;5075733;28;20385;-43
2021/03/02 06:23:28;;;;;;;1.77;1.42;;;23.00;48.70;;;;;;5075077;28;20100;-44
2021/03/02 06:26:24;;;;;;;2.25;1.88;;;23.00;48.70;;;;;;5073266;28;20048;-44
2021/03/02 06:28:52;;;;;;;2.45;2.08;;;23.00;48.70;;;;;;5032721;28;20053;-49
2021/03/02 06:31:45;;;;;;;2.10;1.60;;;23.00;48.70;;;;;;5032394;28;20053;-43
2021/03/02 06:34:12;;;;;;;2.30;1.88;;;23.00;48.70;;;;;;5032546;28;20084;-44
2021/03/02 06:36:41;;;;;;;1.98;1.77;;;22.90;48.70;;;;;;5032496;28;20535;-44
2021/03/02 06:39:23;;;;;;;1.85;1.63;;;23.00;48.70;;;;;;5032532;28;20057;-43
2021/03/02 06:41:51;;;;;;;1.98;1.70;;;23.00;48.70;;;;;;5031808;28;20057;-45
2021/03/02 06:44:18;;;;;;;2.35;1.92;;;23.00;48.70;;;;;;5032479;28;20107;-45
2021/03/02 06:46:46;;;;;;;2.03;1.70;;;23.00;48.70;;;;;;5032089;28;20045;-49
2021/03/02 06:49:13;;;;;;;3.05;2.05;;;23.00;48.70;;;;;;5031383;28;20045;-43
2021/03/02 06:51:40;;;;;;;3.45;1.90;;;23.00;48.70;;;;;;5032406;28;20504;-47
2021/03/02 06:54:16;;;;;;;2.55;1.83;;;23.00;48.70;;;;;;5032352;28;20046;-46
2021/03/02 06:56:44;;;;;;;2.00;1.60;;;23.00;48.70;;;;;;5031525;28;20513;-45
2021/03/02 06:59:19;;;;;;;2.25;1.98;;;23.00;48.70;;;;;;5032322;28;20092;-45
2021/03/02 07:01:47;;;;;;;2.10;1.80;;;23.00;48.70;;;;;;5032123;28;20257;-44
2021/03/02 07:04:19;;;;;;;2.33;1.77;;;23.00;48.70;;;;;;5035452;28;20046;-47
2021/03/02 07:06:51;;;;;;;1.88;1.55;;;23.00;48.70;;;;;;5074059;28;20503;-45
2021/03/02 07:09:18;;;;;;;2.40;1.90;;;23.00;48.70;;;;;;5073991;28;20534;-47
2021/03/02 07:11:46;;;;;;;1.90;1.70;;;23.00;48.70;;;;;;5072538;28;20045;-48
2021/03/02 07:14:14;;;;;;;2.95;2.10;;;23.00;48.70;;;;;;5073170;28;20074;-44
2021/03/02 07:16:46;;;;;;;2.75;2.15;;;23.00;48.70;;;;;;5073941;28;20048;-46
2021/03/02 07:19:23;;;;;;;2.05;1.70;;;23.00;48.70;;;;;;5074439;28;20045;-47
2021/03/02 07:21:57;;;;;;;2.50;1.60;;;23.00;48.70;;;;;;5074073;28;20562;-49
2021/03/02 07:24:31;;;;;;;2.05;1.85;;;23.00;48.70;;;;;;5074251;28;20044;-47
2021/03/02 07:27:02;;;;;;;2.60;2.03;;;23.00;48.70;;;;;;5073391;28;20098;-47
2021/03/02 07:29:30;;;;;;;2.38;1.92;;;23.00;48.70;;;;;;5073980;28;20454;-50
2021/03/02 07:31:58;;;;;;;2.72;1.80;;;23.00;48.70;;;;;;5073639;28;20074;-48
2021/03/02 07:34:25;;;;;;;2.22;1.95;;;23.00;48.70;;;;;;5072529;28;20079;-44
2021/03/02 07:36:52;;;;;;;1.73;1.60;;;23.00;48.70;;;;;;5073545;28;20052;-44
2021/03/02 07:39:21;;;;;;;2.20;1.95;;;23.00;48.70;;;;;;5073626;28;20051;-44
2021/03/02 07:41:50;;;;;;;2.55;1.88;;;23.00;48.70;;;;;;5072995;28;20424;-45
2021/03/02 07:44:16;;;;;;;2.17;1.85;;;23.00;48.70;;;;;;5073463;28;20048;-46
2021/03/02 07:46:46;;;;;;;1.70;1.60;;;23.00;48.70;;;;;;5073226;28;20044;-46
2021/03/02 07:49:23;;;;;;;2.00;1.80;;;23.00;48.60;;;;;;5073797;28;20044;-47
2021/03/02 07:52:01;;;;;;;2.75;1.90;;;23.00;48.70;;;;;;5073360;28;20090;-44
2021/03/02 07:54:30;;;;;;;2.65;2.03;;;23.00;48.60;;;;;;5073475;28;20412;-46
2021/03/02 07:57:26;;;;;;;2.72;2.33;;;23.00;48.60;;;;;;5072373;28;20102;-44
2021/03/02 08:00:14;;;;;;;2.55;1.95;;;23.00;48.60;;;;;;5030418;28;20057;-46
2021/03/02 08:02:41;;;;;;;2.17;1.70;;;23.00;48.60;;;;;;5030911;28;20061;-43
2021/03/02 08:05:26;;;;;;;2.10;1.90;;;23.00;48.60;;;;;;5030976;28;20053;-44
2021/03/02 08:08:23;;;;;;;1.83;1.58;;;23.00;48.60;;;;;;5030791;28;20045;-44
2021/03/02 08:10:54;;;;;;;2.58;1.92;;;23.00;48.60;;;;;;5030842;28;20046;-44
2021/03/02 08:13:37;;;;;;;2.28;1.67;;;23.00;48.60;;;;;;5029989;28;20049;-45
2021/03/02 08:16:06;;;;;;;2.45;1.95;;;23.00;48.60;;;;;;5030676;28;20071;-44
2021/03/02 08:18:37;;;;;;;2.05;1.77;;;23.00;48.60;;;;;;5030742;28;20049;-47
2021/03/02 08:21:17;;;;;;;1.98;1.73;;;23.00;48.60;;;;;;5030554;28;20180;-44
2021/03/02 08:23:57;;;;;;;2.05;1.67;;;23.00;48.60;;;;;;5030678;28;20081;-44
2021/03/02 08:26:30;;;;;;;2.22;1.80;;;23.00;48.60;;;;;;5030464;28;20049;-45
2021/03/02 08:29:18;;;;;;;2.20;1.97;;;23.00;48.60;;;;;;5029783;28;20210;-44
2021/03/02 08:31:48;;;;;;;1.60;1.50;;;23.00;48.60;;;;;;5030535;28;20081;-46
2021/03/02 08:34:18;;;;;;;2.10;1.77;;;23.00;48.60;;;;;;5030422;28;20076;-44
2021/03/02 08:36:49;;;;;;;1.90;1.70;;;23.00;48.60;;;;;;5059197;28;20044;-46
2021/03/02 08:39:18;;;;;;;2.33;1.80;;;23.00;48.60;;;;;;5055241;28;20052;-44
2021/03/02 08:41:47;;;;;;;1.80;1.60;;;23.00;48.60;;;;;;5072479;28;20416;-44
2021/03/02 08:44:25;;;;;;;2.60;1.80;;;23.00;48.50;;;;;;5072540;28;20127;-44
2021/03/02 08:46:56;;;;;;;2.53;1.77;;;23.10;48.70;;;;;;5071375;28;20044;-44
2021/03/02 08:49:24;;;;;;;1.98;1.77;;;23.00;48.50;;;;;;5072708;28;20201;-46
2021/03/02 08:52:01;;;;;;;1.85;1.63;;;23.00;48.50;;;;;;5072340;28;20044;-46
2021/03/02 08:54:28;;;;;;;2.22;1.88;;;23.00;48.50;;;;;;5071829;28;20049;-46
2021/03/02 08:57:05;;;;;;;2.08;1.80;;;23.00;48.50;;;;;;5072182;28;20094;-44
2021/03/02 08:59:33;;;;;;;2.28;1.73;;;23.00;48.50;;;;;;5051996;28;20799;-44
2021/03/02 09:02:00;;;;;;;2.30;1.95;;;23.10;48.60;;;;;;5052223;28;20053;-45
2021/03/02 09:04:33;;;;;;;2.53;2.05;;;23.10;48.60;;;;;;5051917;28;20106;-44
2021/03/02 09:07:00;;;;;;;2.08;1.85;;;23.10;48.60;;;;;;5052099;28;20051;-48
2021/03/02 09:09:29;;;;;;;2.30;1.95;;;23.10;48.60;;;;;;5051969;28;20052;-49
2021/03/02 09:11:58;;;;;;;2.38;1.88;;;23.10;48.60;;;;;;5052108;28;20453;-45
2021/03/02 09:14:36;;;;;;;2.08;1.88;;;23.10;48.60;;;;;;5070657;28;20094;-47
2021/03/02 09:17:04;;;;;;;2.35;1.70;;;23.10;48.60;;;;;;5072152;28;20052;-47
2021/03/02 09:19:41;;;;;;;2.22;2.03;;;23.10;48.60;;;;;;5070710;28;20053;-49
2021/03/02 09:22:14;;;;;;;2.55;1.88;;;23.10;48.60;;;;;;5071941;28;20074;-45
2021/03/02 09:24:43;;;;;;;2.45;2.00;;;23.10;48.60;;;;;;5071178;28;20415;-47
2021/03/02 09:27:14;;;;;;;2.78;1.88;;;23.10;48.60;;;;;;5071800;28;20044;-47
2021/03/02 09:29:43;;;;;;;1.92;1.73;;;23.10;48.60;;;;;;5071347;28;20041;-48
2021/03/02 09:32:13;;;;;;;4.50;2.05;;;23.10;48.60;;;;;;5072204;28;20102;-48
2021/03/02 09:34:43;;;;;;;2.30;1.90;;;23.10;48.60;;;;;;5071884;28;20045;-45
2021/03/02 09:37:12;;;;;;;2.30;2.03;;;23.10;48.60;;;;;;5071648;28;20056;-50
2021/03/02 09:39:41;;;;;;;2.13;1.83;;;23.10;48.60;;;;;;5071977;28;20052;-44
2021/03/02 09:42:16;;;;;;;2.75;2.20;;;23.10;48.60;;;;;;5072086;28;20447;-45
2021/03/02 09:44:52;;;;;;;2.17;1.90;;;23.10;48.60;;;;;;5071333;28;20102;-44
2021/03/02 09:47:27;;;;;;;2.13;1.92;;;23.10;48.60;;;;;;5071742;28;20049;-44
2021/03/02 09:49:57;;;;;;;2.20;1.70;;;23.10;48.60;;;;;;5071615;28;20044;-48
2021/03/02 09:52:30;;;;;;;2.80;1.88;;;23.10;48.60;;;;;;5072015;28;20055;-46
2021/03/02 09:55:09;;;;;;;2.28;1.80;;;23.10;48.60;;;;;;5072038;28;20131;-44
2021/03/02 09:58:15;;;;;;;1.83;1.65;;;23.10;48.60;;;;;;5071172;28;20056;-48
2021/03/02 10:00:59;;;;;;;2.00;1.77;;;23.10;48.50;;;;;;5071464;28;20098;-44
2021/03/02 10:03:37;;;;;;;2.92;1.90;;;23.10;48.50;;;;;;5071991;28;20072;-44
2021/03/02 10:06:06;;;;;;;3.67;1.80;;;23.10;49.10;;;;;;5072319;28;20484;-44
2021/03/02 10:08:34;;;;;;;2.22;1.73;;;23.10;48.60;;;;;;5075433;28;20480;-44
2021/03/02 10:11:13;;;;;;;2.30;2.00;;;23.10;48.60;;;;;;5075480;28;20044;-43
2021/03/02 10:13:40;;;;;;;2.28;2.08;;;23.10;48.50;;;;;;5074895;28;20057;-45
2021/03/02 10:16:14;;;;;;;2.15;1.95;;;23.10;48.50;;;;;;5075149;28;20052;-45
2021/03/02 10:18:52;;;;;;;2.45;1.92;;;23.20;48.60;;;;;;5075248;28;20044;-45
2021/03/02 10:21:21;;;;;;;2.28;1.70;;;23.10;48.60;;;;;;5075393;28;20045;-47
2021/03/02 10:23:53;;;;;;;3.13;1.80;;;23.10;48.60;;;;;;5075244;28;20049;-45
2021/03/02 10:26:31;;;;;;;2.90;1.60;;;23.20;48.60;;;;;;5074642;28;20079;-44
2021/03/02 10:28:59;;;;;;;2.22;1.77;;;23.20;48.60;;;;;;5074240;28;20044;-45
2021/03/02 10:31:27;;;;;;;2.53;1.90;;;23.20;48.60;;;;;;5073744;28;20048;-44
2021/03/02 10:33:54;;;;;;;2.10;1.70;;;23.20;49.20;;;;;;5075154;28;20045;-43
2021/03/02 10:36:29;;;;;;;2.28;1.98;;;23.20;48.60;;;;;;5075141;28;20458;-49
2021/03/02 10:38:58;;;;;;;2.33;2.10;;;23.20;48.60;;;;;;5075041;28;20049;-44
2021/03/02 10:41:26;;;;;;;2.00;1.73;;;23.20;48.60;;;;;;5074642;28;20056;-46
2021/03/02 10:43:54;;;;;;;1.90;1.70;;;23.20;48.60;;;;;;5074309;28;20117;-46
2021/03/02 10:46:22;;;;;;;2.17;1.80;;;23.20;48.60;;;;;;5074763;28;20040;-44
2021/03/02 10:48:49;;;;;;;2.35;1.83;;;23.20;48.60;;;;;;5074576;28;20044;-46
2021/03/02 10:51:17;;;;;;;1.55;1.45;;;23.20;48.60;;;;;;5074619;28;20052;-44
2021/03/02 10:53:46;;;;;;;1.90;1.70;;;23.20;48.60;;;;;;5074115;28;20051;-44
2021/03/02 10:56:13;;;;;;;2.20;1.80;;;23.20;48.60;;;;;;5074842;28;20060;-45
2021/03/02 10:58:40;;;;;;;2.53;2.10;;;23.20;48.50;;;;;;5074054;28;20468;-44
2021/03/02 11:01:07;;;;;;;1.98;1.58;;;23.20;48.50;;;;;;5074299;28;20057;-44
2021/03/02 11:03:34;;;;;;;2.33;1.80;;;23.20;48.50;;;;;;5074574;28;20049;-45
2021/03/02 11:06:02;;;;;;;1.88;1.60;;;23.20;48.50;;;;;;5074023;28;20052;-44
2021/03/02 11:08:29;;;;;;;1.77;1.60;;;23.20;48.50;;;;;;5074167;28;20045;-43
2021/03/02 11:10:55;;;;;;;2.15;1.63;;;23.20;48.50;;;;;;5074081;28;20052;-44
2021/03/02 11:13:22;;;;;;;2.15;1.95;;;23.20;48.50;;;;;;5073647;28;20055;-45
2021/03/02 11:15:49;;;;;;;2.05;1.65;;;23.20;48.50;;;;;;5072663;28;20049;-43
2021/03/02 11:18:15;;;;;;;3.10;1.77;;;23.20;48.50;;;;;;5073128;28;20412;-44
2021/03/02 11:20:44;;;;;;;3.08;2.03;;;23.20;48.40;;;;;;5074001;28;20074;-46
2021/03/02 11:23:13;;;;;;;1.88;1.60;;;23.20;48.40;;;;;;5072949;28;20041;-45
2021/03/02 11:25:41;;;;;;;3.00;2.00;;;23.20;48.40;;;;;;5074058;28;20476;-46
2021/03/02 11:28:12;;;;;;;2.92;2.10;;;23.20;48.40;;;;;;5072810;28;20045;-44
2021/03/02 11:30:40;;;;;;;2.25;1.92;;;23.20;48.40;;;;;;5073230;28;20104;-46
2021/03/02 11:33:09;;;;;;;2.60;1.95;;;23.20;48.40;;;;;;5074021;28;20044;-46
2021/03/02 11:35:42;;;;;;;1.67;1.53;;;23.20;48.40;;;;;;5073601;28;20048;-47
2021/03/02 11:38:09;;;;;;;1.88;1.73;;;23.20;48.40;;;;;;5073656;28;20463;-47
2021/03/02 11:40:36;;;;;;;1.88;1.67;;;23.20;48.40;;;;;;5073380;28;20063;-45
2021/03/02 11:43:03;;;;;;;1.83;1.63;;;23.20;48.50;;;;;;5072307;28;20527;-44
2021/03/02 11:45:34;;;;;;;2.35;1.70;;;23.20;48.40;;;;;;5073151;28;20437;-44
2021/03/02 11:48:01;;;;;;;2.20;1.52;;;23.20;48.40;;;;;;5072570;28;20048;-47
2021/03/02 11:50:27;;;;;;;2.60;1.85;;;23.30;48.50;;;;;;5073710;28;20382;-46
2021/03/02 11:52:54;;;;;;;2.75;1.83;;;23.20;48.40;;;;;;5073669;28;20049;-44
2021/03/02 11:55:21;;;;;;;1.92;1.60;;;23.20;48.40;;;;;;5073518;28;20476;-45
2021/03/02 11:57:48;;;;;;;2.22;1.83;;;23.20;48.40;;;;;;5073526;28;20052;-44
2021/03/02 12:00:18;;;;;;;1.90;1.65;;;23.20;48.40;;;;;;5071338;28;20108;-45
2021/03/02 12:02:46;;;;;;;2.20;1.67;;;23.20;48.40;;;;;;5072071;28;20048;-44
2021/03/02 12:05:15;;;;;;;2.65;2.00;;;23.20;48.40;;;;;;5073762;28;20067;-50
2021/03/02 12:07:46;;;;;;;2.58;1.90;;;23.20;48.40;;;;;;5073004;28;20052;-44
2021/03/02 12:10:15;;;;;;;3.00;1.60;;;23.30;48.50;;;;;;5073329;28;20102;-45
2021/03/02 12:12:42;;;;;;;2.17;1.88;;;23.30;48.50;;;;;;5072825;28;20101;-44
2021/03/02 12:15:11;;;;;;;1.70;1.42;;;23.30;48.50;;;;;;5072242;28;20076;-46
2021/03/02 12:17:39;;;;;;;2.40;1.70;;;23.30;48.50;;;;;;5071641;28;20068;-45
2021/03/02 12:20:08;;;;;;;2.20;2.00;;;23.30;48.50;;;;;;5072970;28;20127;-44
2021/03/02 12:22:38;;;;;;;2.42;1.90;;;23.30;48.50;;;;;;5072836;28;20044;-46
2021/03/02 12:25:09;;;;;;;2.22;1.85;;;23.30;48.50;;;;;;5071881;28;20170;-44
2021/03/02 12:27:36;;;;;;;1.70;1.50;;;23.30;48.50;;;;;;5072977;28;20052;-44
2021/03/02 12:30:05;;;;;;;2.00;1.63;;;23.30;48.60;;;;;;5071689;28;20060;-43
2021/03/02 12:32:32;;;;;;;2.22;1.85;;;23.30;48.50;;;;;;5072978;28;20044;-44
2021/03/02 12:34:58;;;;;;;1.90;1.70;;;23.30;48.60;;;;;;5071741;28;20040;-44
2021/03/02 12:37:25;;;;;;;2.63;1.75;;;23.30;48.50;;;;;;5072544;28;20103;-45
2021/03/02 12:39:52;;;;;;;2.17;1.95;;;23.30;48.50;;;;;;5072527;28;20070;-44
2021/03/02 12:42:19;;;;;;;2.08;1.77;;;23.30;48.50;;;;;;5072778;28;20051;-44
2021/03/02 12:44:45;;;;;;;1.73;1.50;;;23.30;48.50;;;;;;5071632;28;20064;-45
2021/03/02 12:47:12;;;;;;;2.88;1.50;;;23.30;48.50;;;;;;5071349;28;20455;-44
2021/03/02 12:49:39;;;;;;;1.55;1.45;;;23.30;48.50;;;;;;5072669;28;20090;-47
2021/03/02 12:52:07;;;;;;;2.20;2.00;;;23.30;48.50;;;;;;5071358;28;20063;-44
2021/03/02 12:54:34;;;;;;;2.25;1.70;;;23.30;48.50;;;;;;5072369;28;20044;-44
2021/03/02 12:57:01;;;;;;;2.60;1.63;;;23.30;48.50;;;;;;5072520;28;20098;-44
2021/03/02 12:59:27;;;;;;;2.20;1.80;;;23.30;48.50;;;;;;5071790;28;20045;-45
2021/03/02 13:01:55;;;;;;;1.95;1.55;;;23.30;48.50;;;;;;5071307;28;20470;-44
2021/03/02 13:04:23;;;;;;;2.15;1.80;;;23.30;48.50;;;;;;5072112;28;20087;-44